Terminal Aerodrome Forecast
Issued by NWS

Home | Current Version | Previous Version | Text Only | Print | Product List | Glossary On
Versions: 1 2 3 4 5 6 7 8 9 10 11 12
000
FTUS42 TJSJ 051735
TAFJPS
TAF
TJPS 051735Z 0518/0618 14011G18KT P6SM SCT030
     FM052230 05005KT P6SM SKC
     FM061330 13012G25KT P6SM FEW030 FEW050
      AMD NOT SKED TIL 060300=

USA.gov is the U.S. government's official web portal to all federal, state and local government web resources and services.